sensor_id;sensor_type;location;lat;lon;timestamp;pressure;altitude;pressure_sealevel;temperature;humidity
49915;BME280;35806;47.958;13.158;2023-03-20T00:01:49;94811.95;;;8.76;55.79
49915;BME280;35806;47.958;13.158;2023-03-20T00:04:17;94810.96;;;9.50;54.60
49915;BME280;35806;47.958;13.158;2023-03-20T00:06:45;94811.60;;;9.32;54.88
49915;BME280;35806;47.958;13.158;2023-03-20T00:09:13;94808.70;;;9.05;55.01
49915;BME280;35806;47.958;13.158;2023-03-20T00:11:45;94809.35;;;9.19;55.82
49915;BME280;35806;47.958;13.158;2023-03-20T00:14:16;94807.63;;;9.33;55.72
49915;BME280;35806;47.958;13.158;2023-03-20T00:16:45;94806.55;;;9.13;55.85
49915;BME280;35806;47.958;13.158;2023-03-20T00:19:15;94806.85;;;8.29;58.00
49915;BME280;35806;47.958;13.158;2023-03-20T00:21:44;94808.40;;;9.25;56.68
49915;BME280;35806;47.958;13.158;2023-03-20T00:24:12;94806.76;;;8.49;58.57
49915;BME280;35806;47.958;13.158;2023-03-20T00:26:40;94805.14;;;8.37;58.14
49915;BME280;35806;47.958;13.158;2023-03-20T00:29:16;94807.54;;;8.61;57.92
49915;BME280;35806;47.958;13.158;2023-03-20T00:31:48;94801.51;;;9.42;56.42
49915;BME280;35806;47.958;13.158;2023-03-20T00:34:17;94804.87;;;9.31;56.28
49915;BME280;35806;47.958;13.158;2023-03-20T00:36:51;94802.20;;;9.49;55.37
49915;BME280;35806;47.958;13.158;2023-03-20T00:39:19;94802.76;;;8.87;56.89
49915;BME280;35806;47.958;13.158;2023-03-20T00:41:49;94804.56;;;8.73;57.74
49915;BME280;35806;47.958;13.158;2023-03-20T00:44:21;94809.27;;;8.77;57.86
49915;BME280;35806;47.958;13.158;2023-03-20T00:46:52;94805.69;;;9.33;56.16
49915;BME280;35806;47.958;13.158;2023-03-20T00:49:23;94808.27;;;9.17;57.10
49915;BME280;35806;47.958;13.158;2023-03-20T00:51:51;94811.11;;;9.51;56.16
49915;BME280;35806;47.958;13.158;2023-03-20T00:54:19;94811.57;;;8.74;57.51
49915;BME280;35806;47.958;13.158;2023-03-20T00:56:53;94812.05;;;9.21;57.36
49915;BME280;35806;47.958;13.158;2023-03-20T00:59:25;94815.89;;;8.43;60.05
49915;BME280;35806;47.958;13.158;2023-03-20T01:01:55;94817.91;;;7.97;60.58
49915;BME280;35806;47.958;13.158;2023-03-20T01:04:22;94818.23;;;8.29;60.59
49915;BME280;35806;47.958;13.158;2023-03-20T01:06:50;94821.48;;;7.10;63.26
49915;BME280;35806;47.958;13.158;2023-03-20T01:09:18;94823.64;;;7.47;63.53
49915;BME280;35806;47.958;13.158;2023-03-20T01:11:47;94821.98;;;8.08;61.04
49915;BME280;35806;47.958;13.158;2023-03-20T01:14:15;94823.89;;;7.19;64.65
49915;BME280;35806;47.958;13.158;2023-03-20T01:16:43;94821.48;;;8.69;60.30
49915;BME280;35806;47.958;13.158;2023-03-20T01:19:12;94823.19;;;8.55;60.16
49915;BME280;35806;47.958;13.158;2023-03-20T01:21:40;94832.51;;;7.12;64.19
49915;BME280;35806;47.958;13.158;2023-03-20T01:24:08;94828.98;;;6.27;67.09
49915;BME280;35806;47.958;13.158;2023-03-20T01:26:37;94831.07;;;7.15;65.25
49915;BME280;35806;47.958;13.158;2023-03-20T01:29:18;94828.85;;;5.31;71.72
49915;BME280;35806;47.958;13.158;2023-03-20T01:31:51;94830.34;;;4.82;73.38
49915;BME280;35806;47.958;13.158;2023-03-20T01:34:19;94827.35;;;4.64;76.74
49915;BME280;35806;47.958;13.158;2023-03-20T01:36:53;94826.91;;;4.67;78.04
49915;BME280;35806;47.958;13.158;2023-03-20T01:39:21;94831.30;;;4.62;79.21
49915;BME280;35806;47.958;13.158;2023-03-20T01:41:50;94833.66;;;4.68;79.73
49915;BME280;35806;47.958;13.158;2023-03-20T01:44:21;94835.41;;;4.67;79.84
49915;BME280;35806;47.958;13.158;2023-03-20T01:46:56;94835.70;;;4.89;79.26
49915;BME280;35806;47.958;13.158;2023-03-20T01:50:30;94835.87;;;4.52;80.98
49915;BME280;35806;47.958;13.158;2023-03-20T01:53:03;94842.75;;;4.32;80.80
49915;BME280;35806;47.958;13.158;2023-03-20T01:55:33;94842.56;;;4.96;80.48
49915;BME280;35806;47.958;13.158;2023-03-20T01:58:04;94839.55;;;5.28;78.52
49915;BME280;35806;47.958;13.158;2023-03-20T02:16:00;94835.82;;;4.51;76.52
49915;BME280;35806;47.958;13.158;2023-03-20T02:18:28;94837.30;;;4.91;79.08
49915;BME280;35806;47.958;13.158;2023-03-20T02:21:14;94839.53;;;4.91;78.18
49915;BME280;35806;47.958;13.158;2023-03-20T02:24:23;94841.64;;;5.68;75.90
49915;BME280;35806;47.958;13.158;2023-03-20T02:27:07;94845.25;;;5.46;75.16
49915;BME280;35806;47.958;13.158;2023-03-20T02:30:08;94845.97;;;5.40;77.21
49915;BME280;35806;47.958;13.158;2023-03-20T02:34:02;94846.33;;;5.27;77.91
49915;BME280;35806;47.958;13.158;2023-03-20T02:36:47;94846.68;;;5.30;77.64
49915;BME280;35806;47.958;13.158;2023-03-20T02:39:36;94846.55;;;5.97;73.99
49915;BME280;35806;47.958;13.158;2023-03-20T02:42:12;94848.22;;;4.95;78.73
49915;BME280;35806;47.958;13.158;2023-03-20T02:44:52;94847.09;;;4.77;80.21
49915;BME280;35806;47.958;13.158;2023-03-20T02:47:26;94848.17;;;4.92;79.69
49915;BME280;35806;47.958;13.158;2023-03-20T02:50:02;94849.15;;;4.51;81.55
49915;BME280;35806;47.958;13.158;2023-03-20T02:52:44;94843.72;;;5.72;77.76
49915;BME280;35806;47.958;13.158;2023-03-20T02:55:16;94847.17;;;5.29;79.02
49915;BME280;35806;47.958;13.158;2023-03-20T02:57:52;94845.22;;;5.45;79.01
49915;BME280;35806;47.958;13.158;2023-03-20T03:00:28;94849.35;;;5.21;79.61
49915;BME280;35806;47.958;13.158;2023-03-20T03:03:05;94853.41;;;4.57;83.36
49915;BME280;35806;47.958;13.158;2023-03-20T03:05:36;94850.33;;;4.88;82.02
49915;BME280;35806;47.958;13.158;2023-03-20T03:08:05;94845.80;;;5.93;77.43
49915;BME280;35806;47.958;13.158;2023-03-20T03:10:37;94852.22;;;4.71;80.89
49915;BME280;35806;47.958;13.158;2023-03-20T03:13:11;94848.59;;;6.47;74.46
49915;BME280;35806;47.958;13.158;2023-03-20T03:15:41;94847.16;;;5.76;76.07
49915;BME280;35806;47.958;13.158;2023-03-20T03:18:13;94852.58;;;6.37;72.56
49915;BME280;35806;47.958;13.158;2023-03-20T03:20:42;94853.61;;;5.19;76.41
49915;BME280;35806;47.958;13.158;2023-03-20T03:23:19;94855.40;;;4.91;79.09
49915;BME280;35806;47.958;13.158;2023-03-20T03:25:54;94849.89;;;5.98;76.07
49915;BME280;35806;47.958;13.158;2023-03-20T03:28:26;94852.14;;;5.26;78.00
49915;BME280;35806;47.958;13.158;2023-03-20T03:30:56;94847.94;;;5.39;76.67
49915;BME280;35806;47.958;13.158;2023-03-20T03:33:28;94852.56;;;7.06;70.38
49915;BME280;35806;47.958;13.158;2023-03-20T03:36:03;94853.15;;;7.17;69.40
49915;BME280;35806;47.958;13.158;2023-03-20T03:38:39;94851.06;;;7.05;70.01
49915;BME280;35806;47.958;13.158;2023-03-20T03:41:18;94849.34;;;7.40;70.41
49915;BME280;35806;47.958;13.158;2023-03-20T03:43:55;94849.89;;;8.23;66.62
49915;BME280;35806;47.958;13.158;2023-03-20T03:46:27;94848.91;;;8.20;65.36
49915;BME280;35806;47.958;13.158;2023-03-20T03:48:57;94848.01;;;8.36;64.58
49915;BME280;35806;47.958;13.158;2023-03-20T03:51:28;94851.14;;;8.55;63.70
49915;BME280;35806;47.958;13.158;2023-03-20T03:54:00;94853.79;;;8.72;63.18
49915;BME280;35806;47.958;13.158;2023-03-20T03:56:31;94853.62;;;8.61;64.09
49915;BME280;35806;47.958;13.158;2023-03-20T03:59:05;94854.61;;;8.35;64.15
49915;BME280;35806;47.958;13.158;2023-03-20T04:01:35;94856.95;;;8.91;62.68
49915;BME280;35806;47.958;13.158;2023-03-20T04:04:09;94857.69;;;8.53;63.83
49915;BME280;35806;47.958;13.158;2023-03-20T04:06:38;94859.45;;;9.62;61.13
49915;BME280;35806;47.958;13.158;2023-03-20T04:09:05;94863.71;;;9.10;61.60
49915;BME280;35806;47.958;13.158;2023-03-20T04:11:32;94865.32;;;9.07;61.85
49915;BME280;35806;47.958;13.158;2023-03-20T04:13:59;94866.44;;;9.44;61.30
49915;BME280;35806;47.958;13.158;2023-03-20T04:16:27;94866.84;;;8.96;62.08
49915;BME280;35806;47.958;13.158;2023-03-20T04:18:55;94866.03;;;8.56;62.78
49915;BME280;35806;47.958;13.158;2023-03-20T04:21:22;94867.44;;;9.06;62.67
49915;BME280;35806;47.958;13.158;2023-03-20T04:23:49;94866.66;;;9.07;62.58
49915;BME280;35806;47.958;13.158;2023-03-20T04:26:17;94868.55;;;9.31;62.07
49915;BME280;35806;47.958;13.158;2023-03-20T04:28:45;94866.34;;;9.62;61.59
49915;BME280;35806;47.958;13.158;2023-03-20T04:31:12;94869.17;;;8.99;61.69
49915;BME280;35806;47.958;13.158;2023-03-20T04:33:40;94868.71;;;9.18;61.27
49915;BME280;35806;47.958;13.158;2023-03-20T04:36:08;94869.67;;;9.43;61.07
49915;BME280;35806;47.958;13.158;2023-03-20T04:38:35;94870.47;;;9.88;60.11
49915;BME280;35806;47.958;13.158;2023-03-20T04:41:02;94871.47;;;9.26;60.89
49915;BME280;35806;47.958;13.158;2023-03-20T04:43:29;94875.56;;;9.21;61.30
49915;BME280;35806;47.958;13.158;2023-03-20T04:45:57;94879.98;;;9.23;61.23
49915;BME280;35806;47.958;13.158;2023-03-20T04:48:24;94881.46;;;9.25;61.20
49915;BME280;35806;47.958;13.158;2023-03-20T04:50:51;94881.55;;;8.98;60.76
49915;BME280;35806;47.958;13.158;2023-03-20T04:53:19;94886.40;;;9.38;60.82
49915;BME280;35806;47.958;13.158;2023-03-20T04:55:46;94884.81;;;9.43;60.56
49915;BME280;35806;47.958;13.158;2023-03-20T04:58:14;94891.49;;;9.54;60.86
49915;BME280;35806;47.958;13.158;2023-03-20T05:00:42;94891.74;;;9.60;60.72
49915;BME280;35806;47.958;13.158;2023-03-20T05:03:15;94892.08;;;9.78;60.00
49915;BME280;35806;47.958;13.158;2023-03-20T05:05:42;94893.63;;;9.64;60.11
49915;BME280;35806;47.958;13.158;2023-03-20T05:08:10;94896.23;;;9.53;60.34
49915;BME280;35806;47.958;13.158;2023-03-20T05:10:37;94896.22;;;9.65;60.34
49915;BME280;35806;47.958;13.158;2023-03-20T05:13:04;94896.88;;;9.47;60.45
49915;BME280;35806;47.958;13.158;2023-03-20T05:15:32;94904.99;;;9.50;60.44
49915;BME280;35806;47.958;13.158;2023-03-20T05:17:59;94907.72;;;9.48;60.40
49915;BME280;35806;47.958;13.158;2023-03-20T05:20:27;94911.44;;;9.23;60.11
49915;BME280;35806;47.958;13.158;2023-03-20T05:22:54;94914.27;;;9.15;60.22
49915;BME280;35806;47.958;13.158;2023-03-20T05:25:21;94915.80;;;9.18;60.64
49915;BME280;35806;47.958;13.158;2023-03-20T05:27:49;94913.07;;;9.68;59.63
49915;BME280;35806;47.958;13.158;2023-03-20T05:30:16;94915.96;;;9.78;58.78
49915;BME280;35806;47.958;13.158;2023-03-20T05:32:44;94918.97;;;9.69;59.38
49915;BME280;35806;47.958;13.158;2023-03-20T05:35:11;94921.76;;;9.98;58.99
49915;BME280;35806;47.958;13.158;2023-03-20T05:37:39;94923.59;;;9.36;60.50
49915;BME280;35806;47.958;13.158;2023-03-20T05:40:11;94923.62;;;9.21;61.30
49915;BME280;35806;47.958;13.158;2023-03-20T05:42:38;94926.89;;;8.90;61.78
49915;BME280;35806;47.958;13.158;2023-03-20T05:45:07;94926.56;;;9.07;61.30
49915;BME280;35806;47.958;13.158;2023-03-20T05:47:34;94929.78;;;8.89;61.64
49915;BME280;35806;47.958;13.158;2023-03-20T05:50:02;94930.73;;;8.99;60.84
49915;BME280;35806;47.958;13.158;2023-03-20T05:52:29;94931.22;;;9.07;60.90
49915;BME280;35806;47.958;13.158;2023-03-20T05:54:57;94938.12;;;7.37;64.22
49915;BME280;35806;47.958;13.158;2023-03-20T05:57:24;94940.90;;;5.38;71.32
49915;BME280;35806;47.958;13.158;2023-03-20T05:59:51;94942.15;;;4.82;73.86
49915;BME280;35806;47.958;13.158;2023-03-20T06:02:18;94950.30;;;4.21;79.21
49915;BME280;35806;47.958;13.158;2023-03-20T06:04:45;94951.21;;;4.48;81.37
49915;BME280;35806;47.958;13.158;2023-03-20T06:07:12;94950.82;;;5.06;78.86
49915;BME280;35806;47.958;13.158;2023-03-20T06:09:40;94950.57;;;4.80;78.32
49915;BME280;35806;47.958;13.158;2023-03-20T06:12:07;94952.53;;;4.80;79.69
49915;BME280;35806;47.958;13.158;2023-03-20T06:14:39;94954.16;;;5.26;78.29
49915;BME280;35806;47.958;13.158;2023-03-20T06:17:06;94955.58;;;5.07;78.09
49915;BME280;35806;47.958;13.158;2023-03-20T06:19:33;94961.40;;;4.51;78.93
49915;BME280;35806;47.958;13.158;2023-03-20T06:22:01;94963.69;;;4.05;82.60
49915;BME280;35806;47.958;13.158;2023-03-20T06:24:28;94965.76;;;6.15;74.72
49915;BME280;35806;47.958;13.158;2023-03-20T06:26:56;94962.90;;;6.52;73.09
49915;BME280;35806;47.958;13.158;2023-03-20T06:29:23;94969.94;;;5.32;77.25
49915;BME280;35806;47.958;13.158;2023-03-20T06:31:50;94967.31;;;5.79;75.24
49915;BME280;35806;47.958;13.158;2023-03-20T06:34:18;94967.55;;;6.89;71.00
49915;BME280;35806;47.958;13.158;2023-03-20T06:36:46;94972.90;;;7.73;69.15
49915;BME280;35806;47.958;13.158;2023-03-20T06:39:12;94972.69;;;7.67;68.76
49915;BME280;35806;47.958;13.158;2023-03-20T06:41:40;94973.96;;;7.64;67.83
49915;BME280;35806;47.958;13.158;2023-03-20T06:44:07;94972.29;;;7.28;68.23
49915;BME280;35806;47.958;13.158;2023-03-20T06:46:35;94973.76;;;7.62;67.45
49915;BME280;35806;47.958;13.158;2023-03-20T06:49:02;94972.93;;;8.45;66.01
49915;BME280;35806;47.958;13.158;2023-03-20T06:51:39;94974.22;;;8.29;66.52
49915;BME280;35806;47.958;13.158;2023-03-20T06:54:06;94972.93;;;8.42;65.30
49915;BME280;35806;47.958;13.158;2023-03-20T06:56:34;94971.13;;;8.51;64.37
49915;BME280;35806;47.958;13.158;2023-03-20T06:59:01;94973.19;;;8.18;65.43
49915;BME280;35806;47.958;13.158;2023-03-20T07:01:28;94972.19;;;8.97;63.98
49915;BME280;35806;47.958;13.158;2023-03-20T07:03:56;94971.52;;;8.47;65.20
49915;BME280;35806;47.958;13.158;2023-03-20T07:06:24;94979.14;;;8.10;66.36
49915;BME280;35806;47.958;13.158;2023-03-20T07:08:51;94981.01;;;8.37;65.94
49915;BME280;35806;47.958;13.158;2023-03-20T07:11:23;94980.03;;;8.33;66.13
49915;BME280;35806;47.958;13.158;2023-03-20T07:13:51;94980.99;;;7.90;66.41
49915;BME280;35806;47.958;13.158;2023-03-20T07:16:19;94982.43;;;8.37;65.10
49915;BME280;35806;47.958;13.158;2023-03-20T07:18:46;94986.34;;;7.34;67.88
49915;BME280;35806;47.958;13.158;2023-03-20T07:21:16;94990.22;;;7.88;66.38
49915;BME280;35806;47.958;13.158;2023-03-20T07:23:45;94991.69;;;8.23;66.40
49915;BME280;35806;47.958;13.158;2023-03-20T07:26:13;94993.61;;;7.72;67.94
49915;BME280;35806;47.958;13.158;2023-03-20T07:28:40;94994.25;;;7.45;68.19
49915;BME280;35806;47.958;13.158;2023-03-20T07:31:09;94994.58;;;6.84;70.16
49915;BME280;35806;47.958;13.158;2023-03-20T07:33:44;94995.54;;;6.67;70.55
49915;BME280;35806;47.958;13.158;2023-03-20T07:36:11;94996.16;;;8.00;67.31
49915;BME280;35806;47.958;13.158;2023-03-20T07:38:38;94998.51;;;6.95;70.57
49915;BME280;35806;47.958;13.158;2023-03-20T07:41:06;95005.13;;;7.75;67.78
49915;BME280;35806;47.958;13.158;2023-03-20T07:43:33;95004.47;;;7.58;69.68
49915;BME280;35806;47.958;13.158;2023-03-20T07:46:01;95006.26;;;7.12;69.95
49915;BME280;35806;47.958;13.158;2023-03-20T07:48:28;95006.49;;;6.62;71.41
49915;BME280;35806;47.958;13.158;2023-03-20T07:50:55;95009.98;;;6.18;73.29
49915;BME280;35806;47.958;13.158;2023-03-20T07:53:22;95008.34;;;7.25;70.59
49915;BME280;35806;47.958;13.158;2023-03-20T07:55:50;95012.70;;;7.01;70.84
49915;BME280;35806;47.958;13.158;2023-03-20T07:58:17;95018.25;;;7.02;70.43
49915;BME280;35806;47.958;13.158;2023-03-20T08:00:45;95018.26;;;7.29;70.38
49915;BME280;35806;47.958;13.158;2023-03-20T08:03:13;95019.74;;;6.92;70.42
49915;BME280;35806;47.958;13.158;2023-03-20T08:05:40;95022.40;;;7.44;69.70
49915;BME280;35806;47.958;13.158;2023-03-20T08:08:08;95023.14;;;7.15;70.52
49915;BME280;35806;47.958;13.158;2023-03-20T08:10:36;95029.10;;;7.06;69.93
49915;BME280;35806;47.958;13.158;2023-03-20T08:13:03;95024.84;;;7.03;69.73
49915;BME280;35806;47.958;13.158;2023-03-20T08:15:31;95025.17;;;6.87;70.79
49915;BME280;35806;47.958;13.158;2023-03-20T08:17:58;95023.77;;;6.85;70.74
49915;BME280;35806;47.958;13.158;2023-03-20T08:20:26;95022.99;;;7.01;70.10
49915;BME280;35806;47.958;13.158;2023-03-20T08:22:52;95023.15;;;6.50;71.37
49915;BME280;35806;47.958;13.158;2023-03-20T08:25:20;95021.74;;;6.79;71.20
49915;BME280;35806;47.958;13.158;2023-03-20T08:27:48;95024.61;;;7.44;69.71
49915;BME280;35806;47.958;13.158;2023-03-20T08:30:16;95023.64;;;7.42;68.76
49915;BME280;35806;47.958;13.158;2023-03-20T08:32:43;95025.82;;;7.33;68.54
49915;BME280;35806;47.958;13.158;2023-03-20T08:35:11;95026.05;;;7.40;69.51
49915;BME280;35806;47.958;13.158;2023-03-20T08:37:38;95024.89;;;7.22;69.65
49915;BME280;35806;47.958;13.158;2023-03-20T08:40:07;95025.83;;;7.21;69.77
49915;BME280;35806;47.958;13.158;2023-03-20T08:42:34;95030.96;;;7.43;68.30
49915;BME280;35806;47.958;13.158;2023-03-20T08:45:02;95033.37;;;7.18;70.19
49915;BME280;35806;47.958;13.158;2023-03-20T08:47:30;95037.54;;;7.48;69.37
49915;BME280;35806;47.958;13.158;2023-03-20T08:49:58;95037.86;;;7.31;68.43
49915;BME280;35806;47.958;13.158;2023-03-20T08:52:25;95036.98;;;7.58;67.53
49915;BME280;35806;47.958;13.158;2023-03-20T08:54:53;95040.48;;;7.07;68.20
49915;BME280;35806;47.958;13.158;2023-03-20T08:57:20;95042.17;;;7.62;68.40
49915;BME280;35806;47.958;13.158;2023-03-20T08:59:50;95045.18;;;7.94;67.18
49915;BME280;35806;47.958;13.158;2023-03-20T09:02:18;95045.22;;;7.74;67.57
49915;BME280;35806;47.958;13.158;2023-03-20T09:04:45;95043.97;;;7.15;69.06
49915;BME280;35806;47.958;13.158;2023-03-20T09:07:12;95047.52;;;7.47;67.29
49915;BME280;35806;47.958;13.158;2023-03-20T09:09:40;95048.12;;;7.68;66.66
49915;BME280;35806;47.958;13.158;2023-03-20T09:12:07;95048.43;;;7.25;67.58
49915;BME280;35806;47.958;13.158;2023-03-20T09:14:40;95050.57;;;7.57;67.43
49915;BME280;35806;47.958;13.158;2023-03-20T09:17:07;95052.32;;;7.13;67.80
49915;BME280;35806;47.958;13.158;2023-03-20T09:19:35;95055.82;;;7.24;67.50
49915;BME280;35806;47.958;13.158;2023-03-20T09:22:02;95053.34;;;6.88;68.37
49915;BME280;35806;47.958;13.158;2023-03-20T09:24:29;95054.36;;;7.70;67.57
49915;BME280;35806;47.958;13.158;2023-03-20T09:26:57;95054.62;;;7.17;67.63
49915;BME280;35806;47.958;13.158;2023-03-20T09:29:24;95056.29;;;7.94;66.70
49915;BME280;35806;47.958;13.158;2023-03-20T09:31:52;95056.25;;;7.89;66.27
49915;BME280;35806;47.958;13.158;2023-03-20T09:34:19;95052.88;;;7.61;66.91
49915;BME280;35806;47.958;13.158;2023-03-20T09:36:46;95048.92;;;7.92;66.54
49915;BME280;35806;47.958;13.158;2023-03-20T09:39:14;95046.08;;;8.08;66.99
49915;BME280;35806;47.958;13.158;2023-03-20T09:41:46;95052.65;;;8.28;65.38
49915;BME280;35806;47.958;13.158;2023-03-20T09:44:21;95049.78;;;8.12;65.54
49915;BME280;35806;47.958;13.158;2023-03-20T09:47:01;95049.06;;;7.06;67.72
49915;BME280;35806;47.958;13.158;2023-03-20T09:49:40;95049.96;;;7.58;66.45
49915;BME280;35806;47.958;13.158;2023-03-20T09:52:17;95049.14;;;7.81;65.48
49915;BME280;35806;47.958;13.158;2023-03-20T09:54:48;95047.21;;;7.82;66.60
49915;BME280;35806;47.958;13.158;2023-03-20T09:57:21;95047.68;;;7.66;65.90
49915;BME280;35806;47.958;13.158;2023-03-20T09:59:54;95042.22;;;7.35;67.40
49915;BME280;35806;47.958;13.158;2023-03-20T10:02:34;95040.35;;;7.70;66.86
49915;BME280;35806;47.958;13.158;2023-03-20T10:05:05;95039.58;;;8.13;65.33
49915;BME280;35806;47.958;13.158;2023-03-20T10:07:38;95037.76;;;7.96;65.23
49915;BME280;35806;47.958;13.158;2023-03-20T10:10:08;95036.06;;;8.27;64.04
49915;BME280;35806;47.958;13.158;2023-03-20T10:12:47;95029.56;;;8.45;64.08
49915;BME280;35806;47.958;13.158;2023-03-20T10:15:19;95028.66;;;8.29;64.23
49915;BME280;35806;47.958;13.158;2023-03-20T10:17:58;95027.75;;;8.47;63.63
49915;BME280;35806;47.958;13.158;2023-03-20T10:20:32;95027.65;;;8.10;64.70
49915;BME280;35806;47.958;13.158;2023-03-20T10:23:06;95027.52;;;8.02;64.40
49915;BME280;35806;47.958;13.158;2023-03-20T10:25:38;95026.68;;;8.58;63.95
49915;BME280;35806;47.958;13.158;2023-03-20T10:28:11;95031.21;;;8.76;63.70
49915;BME280;35806;47.958;13.158;2023-03-20T10:30:48;95030.59;;;8.80;62.77
49915;BME280;35806;47.958;13.158;2023-03-20T10:33:30;95028.12;;;9.34;62.04
49915;BME280;35806;47.958;13.158;2023-03-20T10:36:11;95026.87;;;9.35;60.96
49915;BME280;35806;47.958;13.158;2023-03-20T10:38:44;95027.08;;;8.67;62.61
49915;BME280;35806;47.958;13.158;2023-03-20T10:41:17;95026.14;;;8.11;65.02
49915;BME280;35806;47.958;13.158;2023-03-20T10:43:48;95025.12;;;8.13;65.85
49915;BME280;35806;47.958;13.158;2023-03-20T10:46:21;95023.33;;;7.72;65.90
49915;BME280;35806;47.958;13.158;2023-03-20T10:48:57;95020.32;;;8.21;64.10
49915;BME280;35806;47.958;13.158;2023-03-20T10:51:36;95018.61;;;8.56;64.51
49915;BME280;35806;47.958;13.158;2023-03-20T10:54:10;95018.71;;;8.08;66.31
49915;BME280;35806;47.958;13.158;2023-03-20T10:56:44;95018.87;;;8.33;64.65
49915;BME280;35806;47.958;13.158;2023-03-20T10:59:19;95016.55;;;8.34;63.93
49915;BME280;35806;47.958;13.158;2023-03-20T11:01:48;95019.20;;;7.97;65.73
49915;BME280;35806;47.958;13.158;2023-03-20T11:04:16;95016.63;;;7.56;66.32
49915;BME280;35806;47.958;13.158;2023-03-20T11:06:50;95016.28;;;7.82;66.45
49915;BME280;35806;47.958;13.158;2023-03-20T11:09:21;95016.31;;;8.23;66.29
49915;BME280;35806;47.958;13.158;2023-03-20T11:11:53;95017.20;;;7.80;66.96
49915;BME280;35806;47.958;13.158;2023-03-20T11:14:24;95015.08;;;8.67;64.24
49915;BME280;35806;47.958;13.158;2023-03-20T11:16:54;95011.27;;;6.98;67.31
49915;BME280;35806;47.958;13.158;2023-03-20T11:19:23;95013.90;;;8.54;64.36
49915;BME280;35806;47.958;13.158;2023-03-20T11:21:53;95015.93;;;8.71;64.17
49915;BME280;35806;47.958;13.158;2023-03-20T11:24:25;95011.80;;;7.81;64.12
49915;BME280;35806;47.958;13.158;2023-03-20T11:26:54;95009.69;;;7.78;63.17
49915;BME280;35806;47.958;13.158;2023-03-20T11:29:36;95007.73;;;7.47;64.55
49915;BME280;35806;47.958;13.158;2023-03-20T11:32:07;95005.99;;;8.98;61.47
49915;BME280;35806;47.958;13.158;2023-03-20T11:34:41;95010.18;;;8.60;62.84
49915;BME280;35806;47.958;13.158;2023-03-20T11:37:21;95005.83;;;8.72;61.14
49915;BME280;35806;47.958;13.158;2023-03-20T11:39:57;95003.66;;;9.14;61.65
49915;BME280;35806;47.958;13.158;2023-03-20T11:42:26;94998.67;;;9.24;61.64
49915;BME280;35806;47.958;13.158;2023-03-20T11:44:59;94997.84;;;8.82;60.78
49915;BME280;35806;47.958;13.158;2023-03-20T11:47:31;94992.37;;;9.61;60.89
49915;BME280;35806;47.958;13.158;2023-03-20T11:50:01;94989.19;;;9.05;60.21
49915;BME280;35806;47.958;13.158;2023-03-20T11:52:31;94979.79;;;9.79;60.22
49915;BME280;35806;47.958;13.158;2023-03-20T11:55:00;94981.94;;;9.35;60.23
49915;BME280;35806;47.958;13.158;2023-03-20T11:57:32;94975.69;;;10.52;58.54
49915;BME280;35806;47.958;13.158;2023-03-20T12:00:05;94974.34;;;10.53;57.42
49915;BME280;35806;47.958;13.158;2023-03-20T12:02:34;94971.28;;;11.06;55.38
49915;BME280;35806;47.958;13.158;2023-03-20T12:05:18;94970.24;;;10.84;55.62
49915;BME280;35806;47.958;13.158;2023-03-20T12:07:54;94969.50;;;11.20;54.76
49915;BME280;35806;47.958;13.158;2023-03-20T12:10:24;94964.39;;;11.01;54.84
49915;BME280;35806;47.958;13.158;2023-03-20T12:12:58;94966.88;;;10.53;54.02
49915;BME280;35806;47.958;13.158;2023-03-20T12:15:29;94969.85;;;11.58;53.81
49915;BME280;35806;47.958;13.158;2023-03-20T12:18:02;94965.45;;;11.18;56.71
49915;BME280;35806;47.958;13.158;2023-03-20T12:20:34;94969.13;;;11.78;54.07
49915;BME280;35806;47.958;13.158;2023-03-20T12:23:11;94964.85;;;12.43;53.24
49915;BME280;35806;47.958;13.158;2023-03-20T12:25:46;94964.79;;;12.26;51.03
49915;BME280;35806;47.958;13.158;2023-03-20T12:28:19;94964.87;;;12.36;48.53
49915;BME280;35806;47.958;13.158;2023-03-20T12:30:58;94959.01;;;12.52;49.33
49915;BME280;35806;47.958;13.158;2023-03-20T12:33:35;94959.02;;;12.96;48.99
49915;BME280;35806;47.958;13.158;2023-03-20T12:36:12;94961.80;;;12.45;49.80
49915;BME280;35806;47.958;13.158;2023-03-20T12:38:40;94954.63;;;12.91;47.99
49915;BME280;35806;47.958;13.158;2023-03-20T12:41:12;94955.99;;;11.80;49.81
49915;BME280;35806;47.958;13.158;2023-03-20T12:43:58;94955.35;;;12.71;49.42
49915;BME280;35806;47.958;13.158;2023-03-20T12:46:35;94955.73;;;10.40;52.79
49915;BME280;35806;47.958;13.158;2023-03-20T12:49:12;94957.40;;;11.95;51.58
49915;BME280;35806;47.958;13.158;2023-03-20T12:51:54;94959.71;;;11.09;53.09
49915;BME280;35806;47.958;13.158;2023-03-20T12:54:37;94957.45;;;11.01;51.74
49915;BME280;35806;47.958;13.158;2023-03-20T12:57:17;94959.45;;;11.53;54.45
49915;BME280;35806;47.958;13.158;2023-03-20T12:59:57;94959.25;;;11.65;52.61
49915;BME280;35806;47.958;13.158;2023-03-20T13:02:38;94959.70;;;11.07;53.69
49915;BME280;35806;47.958;13.158;2023-03-20T13:05:20;94961.36;;;10.63;56.13
49915;BME280;35806;47.958;13.158;2023-03-20T13:08:07;94956.49;;;10.79;56.35
49915;BME280;35806;47.958;13.158;2023-03-20T13:10:39;94954.27;;;11.51;53.53
49915;BME280;35806;47.958;13.158;2023-03-20T13:13:17;94951.09;;;10.63;53.88
49915;BME280;35806;47.958;13.158;2023-03-20T13:15:56;94951.92;;;12.03;51.89
49915;BME280;35806;47.958;13.158;2023-03-20T13:18:38;94948.25;;;11.40;52.32
49915;BME280;35806;47.958;13.158;2023-03-20T13:21:11;94950.94;;;11.69;52.83
49915;BME280;35806;47.958;13.158;2023-03-20T13:23:45;94946.33;;;11.74;52.35
49915;BME280;35806;47.958;13.158;2023-03-20T13:26:25;94942.34;;;9.69;55.52
49915;BME280;35806;47.958;13.158;2023-03-20T13:29:02;94941.48;;;9.93;52.37
49915;BME280;35806;47.958;13.158;2023-03-20T13:31:44;94943.53;;;10.69;53.30
49915;BME280;35806;47.958;13.158;2023-03-20T13:34:23;94945.03;;;9.80;55.02
49915;BME280;35806;47.958;13.158;2023-03-20T13:37:00;94942.21;;;9.92;53.78
49915;BME280;35806;47.958;13.158;2023-03-20T13:39:33;94942.39;;;9.98;54.32